sensor_id;sensor_type;location;lat;lon;timestamp;pressure;altitude;pressure_sealevel;temperature;humidity
22104;BME280;11218;48.886;9.426;2023-02-22T00:00:44;97964.41;;;6.31;80.29
22104;BME280;11218;48.886;9.426;2023-02-22T00:03:17;97966.34;;;6.23;80.61
22104;BME280;11218;48.886;9.426;2023-02-22T00:05:52;97962.31;;;6.14;80.29
22104;BME280;11218;48.886;9.426;2023-02-22T00:08:23;97961.72;;;6.12;81.42
22104;BME280;11218;48.886;9.426;2023-02-22T00:10:51;97970.13;;;6.16;80.48
22104;BME280;11218;48.886;9.426;2023-02-22T00:13:19;97960.47;;;6.15;81.28
22104;BME280;11218;48.886;9.426;2023-02-22T00:15:49;97959.44;;;6.16;81.77
22104;BME280;11218;48.886;9.426;2023-02-22T00:18:18;97960.47;;;6.15;80.92
22104;BME280;11218;48.886;9.426;2023-02-22T00:20:46;97963.38;;;6.13;81.53
22104;BME280;11218;48.886;9.426;2023-02-22T00:23:17;97950.22;;;6.12;81.23
22104;BME280;11218;48.886;9.426;2023-02-22T00:25:46;97952.91;;;6.12;81.85
22104;BME280;11218;48.886;9.426;2023-02-22T00:28:15;97950.00;;;6.13;82.20
22104;BME280;11218;48.886;9.426;2023-02-22T00:30:45;97953.72;;;6.12;81.38
22104;BME280;11218;48.886;9.426;2023-02-22T00:33:15;97942.00;;;6.13;81.63
22104;BME280;11218;48.886;9.426;2023-02-22T00:35:44;97953.50;;;6.14;81.69
22104;BME280;11218;48.886;9.426;2023-02-22T00:38:15;97943.03;;;6.12;82.05
22104;BME280;11218;48.886;9.426;2023-02-22T00:40:44;97943.03;;;6.12;81.33
22104;BME280;11218;48.886;9.426;2023-02-22T00:43:12;97943.69;;;6.08;81.86
22104;BME280;11218;48.886;9.426;2023-02-22T00:45:41;97949.72;;;6.03;83.05
22104;BME280;11218;48.886;9.426;2023-02-22T00:48:09;97952.38;;;6.03;82.16
22104;BME280;11218;48.886;9.426;2023-02-22T00:50:39;97954.09;;;5.98;82.50
22104;BME280;11218;48.886;9.426;2023-02-22T00:53:07;97949.19;;;5.94;83.01
22104;BME280;11218;48.886;9.426;2023-02-22T00:55:36;97937.72;;;5.94;83.98
22104;BME280;11218;48.886;9.426;2023-02-22T00:58:05;97940.25;;;5.89;83.27
22104;BME280;11218;48.886;9.426;2023-02-22T01:00:36;97942.91;;;5.89;83.30
22104;BME280;11218;48.886;9.426;2023-02-22T01:03:05;97937.75;;;5.87;84.03
22104;BME280;11218;48.886;9.426;2023-02-22T01:05:34;97937.75;;;5.87;83.85
22104;BME280;11218;48.886;9.426;2023-02-22T01:08:06;97934.72;;;5.84;83.29
22104;BME280;11218;48.886;9.426;2023-02-22T01:10:35;97925.66;;;5.85;84.29
22104;BME280;11218;48.886;9.426;2023-02-22T01:13:04;97927.97;;;5.81;83.47
22104;BME280;11218;48.886;9.426;2023-02-22T01:15:36;97929.00;;;5.80;83.23
22104;BME280;11218;48.886;9.426;2023-02-22T01:18:05;97923.50;;;5.75;82.55
22104;BME280;11218;48.886;9.426;2023-02-22T01:20:33;97920.47;;;5.72;82.59
22104;BME280;11218;48.886;9.426;2023-02-22T01:23:04;97921.72;;;5.69;82.97
22104;BME280;11218;48.886;9.426;2023-02-22T01:25:34;97921.50;;;5.71;83.21
22104;BME280;11218;48.886;9.426;2023-02-22T01:28:04;97918.00;;;5.70;83.58
22104;BME280;11218;48.886;9.426;2023-02-22T01:30:34;97908.38;;;5.69;83.89
22104;BME280;11218;48.886;9.426;2023-02-22T01:33:05;97897.69;;;5.69;84.15
22104;BME280;11218;48.886;9.426;2023-02-22T01:35:34;97904.94;;;5.62;85.09
22104;BME280;11218;48.886;9.426;2023-02-22T01:38:05;97901.47;;;5.61;85.43
22104;BME280;11218;48.886;9.426;2023-02-22T01:40:36;97901.03;;;5.65;85.08
22104;BME280;11218;48.886;9.426;2023-02-22T01:43:15;97898.94;;;5.67;85.24
22104;BME280;11218;48.886;9.426;2023-02-22T01:45:51;97897.16;;;5.60;85.37
22104;BME280;11218;48.886;9.426;2023-02-22T01:48:25;97885.88;;;5.58;84.68
22104;BME280;11218;48.886;9.426;2023-02-22T01:50:57;97886.78;;;5.52;84.88
22104;BME280;11218;48.886;9.426;2023-02-22T01:53:30;97883.13;;;5.47;85.18
22104;BME280;11218;48.886;9.426;2023-02-22T01:56:00;97885.97;;;5.52;85.08
22104;BME280;11218;48.886;9.426;2023-02-22T01:58:31;97892.84;;;5.59;86.23
22104;BME280;11218;48.886;9.426;2023-02-22T02:01:00;97891.16;;;5.65;86.15
22104;BME280;11218;48.886;9.426;2023-02-22T02:03:31;97889.47;;;5.71;86.73
22104;BME280;11218;48.886;9.426;2023-02-22T02:06:02;97885.09;;;5.76;85.97
22104;BME280;11218;48.886;9.426;2023-02-22T02:08:37;97874.53;;;5.81;86.45
22104;BME280;11218;48.886;9.426;2023-02-22T02:11:08;97872.25;;;5.85;86.91
22104;BME280;11218;48.886;9.426;2023-02-22T02:13:36;97878.81;;;5.89;87.13
22104;BME280;11218;48.886;9.426;2023-02-22T02:16:05;97860.25;;;5.94;88.09
22104;BME280;11218;48.886;9.426;2023-02-22T02:18:33;97856.66;;;6.00;88.00
22104;BME280;11218;48.886;9.426;2023-02-22T02:24:49;97860.34;;;6.17;86.84
22104;BME280;11218;48.886;9.426;2023-02-22T02:27:21;97853.88;;;6.25;86.94
22104;BME280;11218;48.886;9.426;2023-02-22T02:30:18;97847.38;;;6.33;85.54
22104;BME280;11218;48.886;9.426;2023-02-22T02:32:57;97842.16;;;6.38;85.87
22104;BME280;11218;48.886;9.426;2023-02-22T02:35:34;97844.97;;;6.43;84.82
22104;BME280;11218;48.886;9.426;2023-02-22T02:38:10;97845.56;;;6.45;85.15
22104;BME280;11218;48.886;9.426;2023-02-22T02:40:46;97844.44;;;6.52;85.05
22104;BME280;11218;48.886;9.426;2023-02-22T02:43:22;97837.59;;;6.56;84.31
22104;BME280;11218;48.886;9.426;2023-02-22T02:45:56;97836.19;;;6.54;84.26
22104;BME280;11218;48.886;9.426;2023-02-22T02:48:29;97839.66;;;6.54;84.85
22104;BME280;11218;48.886;9.426;2023-02-22T02:51:02;97826.31;;;6.54;84.26
22104;BME280;11218;48.886;9.426;2023-02-22T02:53:34;97833.50;;;6.54;85.14
22104;BME280;11218;48.886;9.426;2023-02-22T02:56:04;97826.44;;;6.59;84.36
22104;BME280;11218;48.886;9.426;2023-02-22T02:58:33;97822.72;;;6.61;84.23
22104;BME280;11218;48.886;9.426;2023-02-22T03:01:02;97827.59;;;6.64;84.50
22104;BME280;11218;48.886;9.426;2023-02-22T03:03:45;97812.97;;;6.66;83.91
22104;BME280;11218;48.886;9.426;2023-02-22T03:06:48;97810.72;;;6.75;83.94
22104;BME280;11218;48.886;9.426;2023-02-22T03:09:28;97807.00;;;6.76;83.66
22104;BME280;11218;48.886;9.426;2023-02-22T03:12:09;97802.47;;;6.76;83.80
22104;BME280;11218;48.886;9.426;2023-02-22T03:14:41;97801.78;;;6.81;82.94
22104;BME280;11218;48.886;9.426;2023-02-22T03:17:22;97803.41;;;6.82;82.58
22104;BME280;11218;48.886;9.426;2023-02-22T03:19:57;97802.59;;;6.81;82.43
22104;BME280;11218;48.886;9.426;2023-02-22T03:22:26;97797.13;;;6.76;82.31
22104;BME280;11218;48.886;9.426;2023-02-22T03:25:01;97799.22;;;6.74;83.17
22104;BME280;11218;48.886;9.426;2023-02-22T03:27:36;97796.19;;;6.71;83.23
22104;BME280;11218;48.886;9.426;2023-02-22T03:30:12;97787.03;;;6.67;83.43
22104;BME280;11218;48.886;9.426;2023-02-22T03:32:46;97797.94;;;6.65;82.70
22104;BME280;11218;48.886;9.426;2023-02-22T03:35:19;97789.94;;;6.65;82.45
22104;BME280;11218;48.886;9.426;2023-02-22T03:37:52;97788.31;;;6.64;82.39
22104;BME280;11218;48.886;9.426;2023-02-22T03:40:23;97788.19;;;6.59;83.21
22104;BME280;11218;48.886;9.426;2023-02-22T03:42:58;97787.59;;;6.57;82.53
22104;BME280;11218;48.886;9.426;2023-02-22T03:45:29;97785.97;;;6.56;83.38
22104;BME280;11218;48.886;9.426;2023-02-22T03:48:03;97786.78;;;6.56;82.88
22104;BME280;11218;48.886;9.426;2023-02-22T03:50:35;97783.53;;;6.54;81.94
22104;BME280;11218;48.886;9.426;2023-02-22T03:53:04;97787.50;;;6.64;81.73
22104;BME280;11218;48.886;9.426;2023-02-22T03:55:33;97782.13;;;6.64;81.13
22104;BME280;11218;48.886;9.426;2023-02-22T03:58:04;97784.00;;;6.63;81.62
22104;BME280;11218;48.886;9.426;2023-02-22T04:00:34;97787.50;;;6.64;81.73
22104;BME280;11218;48.886;9.426;2023-02-22T04:03:02;97789.56;;;6.62;82.38
22104;BME280;11218;48.886;9.426;2023-02-22T04:05:30;97791.09;;;6.57;81.96
22104;BME280;11218;48.886;9.426;2023-02-22T04:08:00;97788.28;;;6.52;82.11
22104;BME280;11218;48.886;9.426;2023-02-22T04:10:28;97794.09;;;6.49;81.65
22104;BME280;11218;48.886;9.426;2023-02-22T04:12:56;97793.16;;;6.44;82.75
22104;BME280;11218;48.886;9.426;2023-02-22T04:15:24;97792.56;;;6.42;81.88
22104;BME280;11218;48.886;9.426;2023-02-22T04:17:52;97791.38;;;6.38;82.59
22104;BME280;11218;48.886;9.426;2023-02-22T04:20:20;97789.16;;;6.35;83.01
22104;BME280;11218;48.886;9.426;2023-02-22T04:22:51;97785.91;;;6.33;82.61
22104;BME280;11218;48.886;9.426;2023-02-22T04:25:22;97782.06;;;6.29;82.15
22104;BME280;11218;48.886;9.426;2023-02-22T04:27:50;97773.81;;;6.30;82.29
22104;BME280;11218;48.886;9.426;2023-02-22T04:30:18;97774.63;;;6.31;82.61
22104;BME280;11218;48.886;9.426;2023-02-22T04:32:47;97778.94;;;6.32;81.70
22104;BME280;11218;48.886;9.426;2023-02-22T04:35:15;97776.72;;;6.29;83.00
22104;BME280;11218;48.886;9.426;2023-02-22T04:37:43;97774.28;;;6.27;82.50
22104;BME280;11218;48.886;9.426;2023-02-22T04:40:11;97775.19;;;6.21;82.08
22104;BME280;11218;48.886;9.426;2023-02-22T04:42:41;97780.75;;;6.19;82.85
22104;BME280;11218;48.886;9.426;2023-02-22T04:45:09;97776.91;;;6.15;82.19
22104;BME280;11218;48.886;9.426;2023-02-22T04:47:38;97772.25;;;6.11;83.27
22104;BME280;11218;48.886;9.426;2023-02-22T04:50:08;97773.53;;;6.08;83.40
22104;BME280;11218;48.886;9.426;2023-02-22T04:52:36;97773.16;;;6.05;83.08
22104;BME280;11218;48.886;9.426;2023-02-22T04:55:05;97771.53;;;6.04;83.46
22104;BME280;11218;48.886;9.426;2023-02-22T04:57:33;97770.94;;;6.02;84.15
22104;BME280;11218;48.886;9.426;2023-02-22T05:00:03;97770.94;;;6.02;83.05
22104;BME280;11218;48.886;9.426;2023-02-22T05:02:31;97760.47;;;6.00;83.95
22104;BME280;11218;48.886;9.426;2023-02-22T05:04:59;97763.16;;;6.00;83.52
22104;BME280;11218;48.886;9.426;2023-02-22T05:07:27;97760.72;;;5.99;84.14
22104;BME280;11218;48.886;9.426;2023-02-22T05:09:55;97758.25;;;5.97;83.31
22104;BME280;11218;48.886;9.426;2023-02-22T05:12:25;97756.63;;;5.96;83.61
22104;BME280;11218;48.886;9.426;2023-02-22T05:14:54;97757.69;;;5.95;83.98
22104;BME280;11218;48.886;9.426;2023-02-22T05:17:23;97757.94;;;5.93;84.27
22104;BME280;11218;48.886;9.426;2023-02-22T05:19:51;97750.38;;;5.90;84.69
22104;BME280;11218;48.886;9.426;2023-02-22T05:22:19;97751.19;;;5.91;84.20
22104;BME280;11218;48.886;9.426;2023-02-22T05:24:47;97749.34;;;5.91;84.60
22104;BME280;11218;48.886;9.426;2023-02-22T05:27:15;97748.53;;;5.91;83.92
22104;BME280;11218;48.886;9.426;2023-02-22T05:29:43;97750.97;;;5.92;83.75
22104;BME280;11218;48.886;9.426;2023-02-22T05:32:11;97746.66;;;5.91;84.13
22104;BME280;11218;48.886;9.426;2023-02-22T05:34:40;97751.19;;;5.91;84.73
22104;BME280;11218;48.886;9.426;2023-02-22T05:37:08;97743.41;;;5.89;84.65
22104;BME280;11218;48.886;9.426;2023-02-22T05:39:36;97742.78;;;5.87;84.57
22104;BME280;11218;48.886;9.426;2023-02-22T05:42:04;97741.97;;;5.87;84.55
22104;BME280;11218;48.886;9.426;2023-02-22T05:44:32;97742.19;;;5.85;84.51
22104;BME280;11218;48.886;9.426;2023-02-22T05:47:00;97742.66;;;5.82;84.05
22104;BME280;11218;48.886;9.426;2023-02-22T05:49:28;97748.44;;;5.79;84.48
22104;BME280;11218;48.886;9.426;2023-02-22T05:51:58;97740.66;;;5.78;83.82
22104;BME280;11218;48.886;9.426;2023-02-22T05:54:26;97744.38;;;5.77;83.57
22104;BME280;11218;48.886;9.426;2023-02-22T05:56:54;97735.78;;;5.75;84.81
22104;BME280;11218;48.886;9.426;2023-02-22T05:59:22;97733.09;;;5.75;84.49
22104;BME280;11218;48.886;9.426;2023-02-22T06:01:50;97735.53;;;5.76;83.99
22104;BME280;11218;48.886;9.426;2023-02-22T06:04:18;97731.47;;;5.74;84.15
22104;BME280;11218;48.886;9.426;2023-02-22T06:06:46;97734.13;;;5.74;84.73
22104;BME280;11218;48.886;9.426;2023-02-22T06:09:15;97731.47;;;5.74;83.71
22104;BME280;11218;48.886;9.426;2023-02-22T06:11:43;97733.56;;;5.72;84.43
22104;BME280;11218;48.886;9.426;2023-02-22T06:14:11;97733.09;;;5.75;83.76
22104;BME280;11218;48.886;9.426;2023-02-22T06:16:39;97733.31;;;5.73;83.83
22104;BME280;11218;48.886;9.426;2023-02-22T06:19:07;97736.66;;;5.69;84.40
22104;BME280;11218;48.886;9.426;2023-02-22T06:21:35;97741.41;;;5.67;85.14
22104;BME280;11218;48.886;9.426;2023-02-22T06:24:03;97745.13;;;5.66;84.50
22104;BME280;11218;48.886;9.426;2023-02-22T06:26:33;97745.13;;;5.66;84.10
22104;BME280;11218;48.886;9.426;2023-02-22T06:29:01;97751.44;;;5.53;84.27
22104;BME280;11218;48.886;9.426;2023-02-22T06:31:31;97746.41;;;5.45;84.67
22104;BME280;11218;48.886;9.426;2023-02-22T06:34:00;97744.13;;;5.48;84.93
22104;BME280;11218;48.886;9.426;2023-02-22T06:36:28;97743.91;;;5.50;84.71
22104;BME280;11218;48.886;9.426;2023-02-22T06:38:57;97746.56;;;5.50;85.06
22104;BME280;11218;48.886;9.426;2023-02-22T06:41:25;97753.09;;;5.54;84.47
22104;BME280;11218;48.886;9.426;2023-02-22T06:43:54;97751.00;;;5.56;84.52
22104;BME280;11218;48.886;9.426;2023-02-22T06:46:22;97755.31;;;5.57;85.09
22104;BME280;11218;48.886;9.426;2023-02-22T06:48:50;97757.97;;;5.57;84.57
22104;BME280;11218;48.886;9.426;2023-02-22T06:51:18;97764.06;;;5.46;83.99
22104;BME280;11218;48.886;9.426;2023-02-22T06:53:47;97755.75;;;5.36;84.22
22104;BME280;11218;48.886;9.426;2023-02-22T06:56:15;97753.69;;;5.38;84.40
22104;BME280;11218;48.886;9.426;2023-02-22T06:58:44;97759.63;;;5.40;84.47
22104;BME280;11218;48.886;9.426;2023-02-22T07:01:13;97774.38;;;5.42;84.40
22104;BME280;11218;48.886;9.426;2023-02-22T07:03:42;97764.50;;;5.43;84.29
22104;BME280;11218;48.886;9.426;2023-02-22T07:06:10;97772.66;;;5.48;84.07
22104;BME280;11218;48.886;9.426;2023-02-22T07:08:38;97763.63;;;5.49;84.40
22104;BME280;11218;48.886;9.426;2023-02-22T07:11:07;97773.03;;;5.51;83.68
22104;BME280;11218;48.886;9.426;2023-02-22T07:13:35;97781.63;;;5.53;84.62
22104;BME280;11218;48.886;9.426;2023-02-22T07:16:04;97776.06;;;5.55;83.50
22104;BME280;11218;48.886;9.426;2023-02-22T07:18:33;97771.78;;;5.54;83.43
22104;BME280;11218;48.886;9.426;2023-02-22T07:21:02;97781.41;;;5.55;83.53
22104;BME280;11218;48.886;9.426;2023-02-22T07:23:30;97782.81;;;5.57;83.63
22104;BME280;11218;48.886;9.426;2023-02-22T07:25:58;97789.41;;;5.55;84.22
22104;BME280;11218;48.886;9.426;2023-02-22T07:28:26;97777.25;;;5.59;84.61
22104;BME280;11218;48.886;9.426;2023-02-22T07:30:54;97792.38;;;5.65;84.55
22104;BME280;11218;48.886;9.426;2023-02-22T07:33:22;97785.53;;;5.69;83.73
22104;BME280;11218;48.886;9.426;2023-02-22T07:35:52;97792.53;;;5.70;83.83
22104;BME280;11218;48.886;9.426;2023-02-22T07:38:20;97779.91;;;5.77;84.27
22104;BME280;11218;48.886;9.426;2023-02-22T07:40:48;97779.81;;;5.84;83.52
22104;BME280;11218;48.886;9.426;2023-02-22T07:43:18;97782.78;;;5.94;83.45
22104;BME280;11218;48.886;9.426;2023-02-22T07:45:48;97786.88;;;6.08;83.36
22104;BME280;11218;48.886;9.426;2023-02-22T07:48:19;97781.81;;;6.18;82.46
22104;BME280;11218;48.886;9.426;2023-02-22T07:50:47;97791.34;;;6.26;82.59
22104;BME280;11218;48.886;9.426;2023-02-22T07:53:19;97789.06;;;6.41;83.12
22104;BME280;11218;48.886;9.426;2023-02-22T07:55:47;97782.72;;;6.54;82.27
22104;BME280;11218;48.886;9.426;2023-02-22T07:58:18;97787.25;;;6.65;81.57
22104;BME280;11218;48.886;9.426;2023-02-22T08:00:46;97784.78;;;6.75;81.56
22104;BME280;11218;48.886;9.426;2023-02-22T08:03:17;97785.28;;;6.84;82.07
22104;BME280;11218;48.886;9.426;2023-02-22T08:05:47;97780.28;;;6.87;82.27
22104;BME280;11218;48.886;9.426;2023-02-22T08:08:17;97777.13;;;7.02;81.72
22104;BME280;11218;48.886;9.426;2023-02-22T08:10:46;97777.59;;;7.22;82.23
22104;BME280;11218;48.886;9.426;2023-02-22T08:13:14;97771.13;;;7.47;81.24
22104;BME280;11218;48.886;9.426;2023-02-22T08:15:44;97776.53;;;7.64;81.92
22104;BME280;11218;48.886;9.426;2023-02-22T08:18:14;97774.97;;;7.79;81.65
22104;BME280;11218;48.886;9.426;2023-02-22T08:20:44;97770.41;;;7.91;80.26
22104;BME280;11218;48.886;9.426;2023-02-22T08:23:14;97774.56;;;7.99;80.32
22104;BME280;11218;48.886;9.426;2023-02-22T08:25:44;97779.31;;;8.09;80.23
22104;BME280;11218;48.886;9.426;2023-02-22T08:28:14;97778.41;;;8.20;79.87
22104;BME280;11218;48.886;9.426;2023-02-22T08:30:43;97783.38;;;8.28;79.87
22104;BME280;11218;48.886;9.426;2023-02-22T08:33:13;97783.50;;;8.33;79.51
22104;BME280;11218;48.886;9.426;2023-02-22T08:35:42;97782.78;;;8.38;80.04
22104;BME280;11218;48.886;9.426;2023-02-22T08:38:17;97782.38;;;8.46;79.81
22104;BME280;11218;48.886;9.426;2023-02-22T08:40:47;97783.03;;;8.53;80.02
22104;BME280;11218;48.886;9.426;2023-02-22T08:43:16;97777.75;;;8.58;80.39
22104;BME280;11218;48.886;9.426;2023-02-22T08:45:45;97784.50;;;8.61;79.74
22104;BME280;11218;48.886;9.426;2023-02-22T08:48:48;97784.84;;;8.64;80.02
22104;BME280;11218;48.886;9.426;2023-02-22T08:51:17;97785.41;;;8.66;79.80
22104;BME280;11218;48.886;9.426;2023-02-22T08:53:45;97780.59;;;8.68;79.26
22104;BME280;11218;48.886;9.426;2023-02-22T08:56:14;97779.16;;;8.77;78.23
22104;BME280;11218;48.886;9.426;2023-02-22T08:58:42;97786.47;;;8.82;78.79
22104;BME280;11218;48.886;9.426;2023-02-22T09:01:10;97784.34;;;8.84;78.45
22104;BME280;11218;48.886;9.426;2023-02-22T09:03:47;97784.44;;;8.89;78.21
22104;BME280;11218;48.886;9.426;2023-02-22T09:06:15;97779.75;;;9.01;78.65
22104;BME280;11218;48.886;9.426;2023-02-22T09:08:44;97781.59;;;9.17;78.58
22104;BME280;11218;48.886;9.426;2023-02-22T09:11:13;97785.81;;;9.30;78.61
22104;BME280;11218;48.886;9.426;2023-02-22T09:13:42;97785.56;;;9.32;79.64
22104;BME280;11218;48.886;9.426;2023-02-22T09:16:10;97771.28;;;9.48;78.45
22104;BME280;11218;48.886;9.426;2023-02-22T09:18:38;97773.47;;;9.51;78.16
22104;BME280;11218;48.886;9.426;2023-02-22T09:21:10;97768.81;;;9.68;77.62
22104;BME280;11218;48.886;9.426;2023-02-22T09:23:38;97775.94;;;9.79;76.75
22104;BME280;11218;48.886;9.426;2023-02-22T09:26:07;97773.63;;;9.88;76.99
22104;BME280;11218;48.886;9.426;2023-02-22T09:28:37;97775.88;;;9.96;76.17
22104;BME280;11218;48.886;9.426;2023-02-22T09:31:05;97771.66;;;10.05;75.72
22104;BME280;11218;48.886;9.426;2023-02-22T09:33:34;97774.16;;;10.12;75.32
22104;BME280;11218;48.886;9.426;2023-02-22T09:36:02;97781.03;;;10.25;75.34
22104;BME280;11218;48.886;9.426;2023-02-22T09:38:32;97775.00;;;10.39;75.10
22104;BME280;11218;48.886;9.426;2023-02-22T09:41:12;97769.72;;;10.54;74.13
22104;BME280;11218;48.886;9.426;2023-02-22T09:43:46;97759.94;;;10.43;73.40
22104;BME280;11218;48.886;9.426;2023-02-22T09:46:25;97773.63;;;10.37;74.49
22104;BME280;11218;48.886;9.426;2023-02-22T09:48:59;97767.44;;;10.41;74.59
22104;BME280;11218;48.886;9.426;2023-02-22T09:51:33;97766.47;;;10.52;73.55
22104;BME280;11218;48.886;9.426;2023-02-22T09:54:10;97762.81;;;10.64;70.89
22104;BME280;11218;48.886;9.426;2023-02-22T09:56:45;97765.75;;;10.62;71.32
22104;BME280;11218;48.886;9.426;2023-02-22T09:59:19;97771.47;;;10.71;71.28
22104;BME280;11218;48.886;9.426;2023-02-22T10:01:54;97758.88;;;10.76;69.54
22104;BME280;11218;48.886;9.426;2023-02-22T10:04:35;97764.28;;;10.81;68.63
22104;BME280;11218;48.886;9.426;2023-02-22T10:07:14;97761.59;;;10.81;69.21
22104;BME280;11218;48.886;9.426;2023-02-22T10:09:46;97761.13;;;10.90;69.09
22104;BME280;11218;48.886;9.426;2023-02-22T10:12:21;97762.84;;;11.06;69.21
22104;BME280;11218;48.886;9.426;2023-02-22T10:15:19;97753.47;;;11.18;67.11
22104;BME280;11218;48.886;9.426;2023-02-22T10:18:00;97762.09;;;11.20;67.87
22104;BME280;11218;48.886;9.426;2023-02-22T10:20:40;97759.22;;;11.32;67.87
22104;BME280;11218;48.886;9.426;2023-02-22T10:23:16;97753.09;;;11.47;67.13
22104;BME280;11218;48.886;9.426;2023-02-22T10:25:51;97750.22;;;11.64;66.01
22104;BME280;11218;48.886;9.426;2023-02-22T10:28:25;97756.25;;;11.81;64.17
22104;BME280;11218;48.886;9.426;2023-02-22T10:31:01;97750.88;;;11.96;63.99
22104;BME280;11218;48.886;9.426;2023-02-22T10:33:33;97756.03;;;12.08;61.57
22104;BME280;11218;48.886;9.426;2023-02-22T10:36:04;97751.44;;;12.13;62.41
22104;BME280;11218;48.886;9.426;2023-02-22T10:38:33;97742.31;;;12.30;62.45
22104;BME280;11218;48.886;9.426;2023-02-22T10:41:14;97744.75;;;12.41;61.95
22104;BME280;11218;48.886;9.426;2023-02-22T10:43:45;97735.03;;;12.45;62.01
22104;BME280;11218;48.886;9.426;2023-02-22T10:46:17;97738.81;;;12.55;60.64
22104;BME280;11218;48.886;9.426;2023-02-22T10:48:50;97731.53;;;12.50;60.20
22104;BME280;11218;48.886;9.426;2023-02-22T10:51:20;97741.50;;;12.44;60.44
22104;BME280;11218;48.886;9.426;2023-02-22T10:53:57;97740.97;;;12.53;59.99
22104;BME280;11218;48.886;9.426;2023-02-22T10:56:26;97726.94;;;12.61;60.01
22104;BME280;11218;48.886;9.426;2023-02-22T10:58:56;97731.78;;;12.64;60.36
22104;BME280;11218;48.886;9.426;2023-02-22T11:01:34;97728.78;;;12.80;60.31
22104;BME280;11218;48.886;9.426;2023-02-22T11:04:09;97721.19;;;13.08;60.09
22104;BME280;11218;48.886;9.426;2023-02-22T11:06:40;97723.88;;;13.28;58.76
22104;BME280;11218;48.886;9.426;2023-02-22T11:09:11;97718.72;;;13.32;57.71
22104;BME280;11218;48.886;9.426;2023-02-22T11:11:42;97716.03;;;13.27;57.04
22104;BME280;11218;48.886;9.426;2023-02-22T11:14:23;97719.56;;;13.22;57.29
22104;BME280;11218;48.886;9.426;2023-02-22T11:17:00;97718.19;;;13.35;58.12
22104;BME280;11218;48.886;9.426;2023-02-22T11:19:33;97710.59;;;13.37;57.19
22104;BME280;11218;48.886;9.426;2023-02-22T11:22:10;97711.34;;;13.47;57.09
22104;BME280;11218;48.886;9.426;2023-02-22T11:24:44;97699.44;;;13.54;56.95
22104;BME280;11218;48.886;9.426;2023-02-22T11:27:27;97693.94;;;13.69;56.33
22104;BME280;11218;48.886;9.426;2023-02-22T11:30:10;97694.81;;;13.59;56.37
22104;BME280;11218;48.886;9.426;2023-02-22T11:32:52;97687.25;;;13.56;55.42
22104;BME280;11218;48.886;9.426;2023-02-22T11:35:37;97687.31;;;13.41;56.34
22104;BME280;11218;48.886;9.426;2023-02-22T11:38:14;97683.25;;;13.38;57.26
22104;BME280;11218;48.886;9.426;2023-02-22T11:40:43;97681.94;;;13.36;57.70
22104;BME280;11218;48.886;9.426;2023-02-22T11:43:15;97687.38;;;13.31;57.53
22104;BME280;11218;48.886;9.426;2023-02-22T11:45:58;97683.06;;;13.25;57.46
22104;BME280;11218;48.886;9.426;2023-02-22T11:48:36;97690.91;;;13.11;58.46
22104;BME280;11218;48.886;9.426;2023-02-22T11:51:20;97687.13;;;13.12;58.92
22104;BME280;11218;48.886;9.426;2023-02-22T11:56:52;97671.44;;;13.14;57.58
22104;BME280;11218;48.886;9.426;2023-02-22T11:59:37;97679.84;;;13.23;58.50
22104;BME280;11218;48.886;9.426;2023-02-22T12:02:30;97668.19;;;13.32;57.75
22104;BME280;11218;48.886;9.426;2023-02-22T12:05:34;97667.56;;;13.45;56.99
22104;BME280;11218;48.886;9.426;2023-02-22T12:08:15;97662.41;;;13.49;57.69
22104;BME280;11218;48.886;9.426;2023-02-22T12:10:56;97655.69;;;13.41;57.23
22104;BME280;11218;48.886;9.426;2023-02-22T12:13:42;97660.00;;;13.42;57.60
22104;BME280;11218;48.886;9.426;2023-02-22T12:16:18;97655.72;;;13.36;57.69
22104;BME280;11218;48.886;9.426;2023-02-22T12:19:01;97664.13;;;13.30;58.69
22104;BME280;11218;48.886;9.426;2023-02-22T12:21:38;97653.56;;;13.33;57.99
22104;BME280;11218;48.886;9.426;2023-02-22T12:24:10;97652.81;;;13.23;58.25
22104;BME280;11218;48.886;9.426;2023-02-22T12:26:45;97642.81;;;13.18;59.17
22104;BME280;11218;48.886;9.426;2023-02-22T12:29:20;97647.16;;;13.19;58.83
22104;BME280;11218;48.886;9.426;2023-02-22T12:31:55;97649.31;;;13.17;59.13
22104;BME280;11218;48.886;9.426;2023-02-22T12:34:32;97643.06;;;13.27;58.02
22104;BME280;11218;48.886;9.426;2023-02-22T12:37:11;97646.59;;;13.12;58.75
22104;BME280;11218;48.886;9.426;2023-02-22T12:39:48;97643.06;;;13.22;57.56
22104;BME280;11218;48.886;9.426;2023-02-22T12:42:27;97644.16;;;13.10;59.04
22104;BME280;11218;48.886;9.426;2023-02-22T12:45:00;97639.03;;;13.14;59.34
22104;BME280;11218;48.886;9.426;2023-02-22T12:47:37;97640.94;;;13.19;59.13
22104;BME280;11218;48.886;9.426;2023-02-22T12:50:16;97642.53;;;13.25;58.25
22104;BME280;11218;48.886;9.426;2023-02-22T12:52:52;97637.13;;;13.14;59.04
22104;BME280;11218;48.886;9.426;2023-02-22T12:55:24;97638.75;;;13.21;58.51
22104;BME280;11218;48.886;9.426;2023-02-22T12:57:57;97635.25;;;13.20;58.42
22104;BME280;11218;48.886;9.426;2023-02-22T13:00:34;97631.47;;;13.16;59.11
22104;BME280;11218;48.886;9.426;2023-02-22T13:03:26;97631.47;;;13.16;59.71
22104;BME280;11218;48.886;9.426;2023-02-22T13:06:11;97623.88;;;13.28;58.61
22104;BME280;11218;48.886;9.426;2023-02-22T13:09:00;97626.81;;;13.32;58.17
22104;BME280;11218;48.886;9.426;2023-02-22T13:11:36;97626.25;;;13.35;57.54
22104;BME280;11218;48.886;9.426;2023-02-22T13:14:25;97625.72;;;13.33;58.08
22104;BME280;11218;48.886;9.426;2023-02-22T13:17:02;97627.06;;;13.35;58.00
22104;BME280;11218;48.886;9.426;2023-02-22T13:19:39;97618.09;;;13.40;58.41
22104;BME280;11218;48.886;9.426;2023-02-22T13:22:16;97621.63;;;13.40;58.39
22104;BME280;11218;48.886;9.426;2023-02-22T13:24:57;97617.78;;;13.52;57.45
22104;BME280;11218;48.886;9.426;2023-02-22T13:27:34;97606.13;;;13.56;57.32
22104;BME280;11218;48.886;9.426;2023-02-22T13:30:12;97609.78;;;13.75;56.83
22104;BME280;11218;48.886;9.426;2023-02-22T13:32:56;97609.78;;;13.75;57.40
22104;BME280;11218;48.886;9.426;2023-02-22T13:35:41;97607.56;;;13.82;57.66
22104;BME280;11218;48.886;9.426;2023-02-22T13:38:53;97608.25;;;14.03;56.84
22104;BME280;11218;48.886;9.426;2023-02-22T13:41:53;97608.94;;;14.14;56.73